Time;durP1;ratioP1;P1;durP2;ratioP2;P2;SDS_P1;SDS_P2;PMS_P1;PMS_P2;Temp;Humidity;BMP_temperature;BMP_pressure;BME280_temperature;BME280_humidity;BME280_pressure;Samples;Min_cycle;Max_cycle;Signal;HPM_P1;HPM_P2
2021/12/07 00:02:07;;;;;;;39.55;28.15;;;128.40;2252.80;;;;;;5025831;28;20712;-73
2021/12/07 00:04:33;;;;;;;40.30;25.98;;;128.50;2252.80;;;;;;5027559;28;20033;-73
2021/12/07 00:06:59;;;;;;;39.10;27.92;;;128.50;2252.80;;;;;;5046167;28;20033;-73
2021/12/07 00:09:25;;;;;;;40.47;25.98;;;128.50;2252.80;;;;;;5035467;28;20796;-72
2021/12/07 00:11:52;;;;;;;42.63;27.48;;;128.40;2252.80;;;;;;5054504;28;20049;-72
2021/12/07 00:14:24;;;;;;;38.72;25.63;;;128.40;2252.80;;;;;;5052485;28;20104;-73
2021/12/07 00:16:52;;;;;;;38.08;25.52;;;128.40;2252.80;;;;;;5039728;28;20037;-73
2021/12/07 00:19:18;;;;;;;38.08;24.35;;;128.50;2252.80;;;;;;5056355;28;20407;-73
2021/12/07 00:21:45;;;;;;;42.70;27.10;;;128.40;2252.80;;;;;;5049456;28;20030;-73
2021/12/07 00:24:13;;;;;;;37.17;25.35;;;128.40;2252.80;;;;;;5053354;28;20075;-73
2021/12/07 00:26:40;;;;;;;38.67;24.90;;;128.40;2252.80;;;;;;5055090;28;20045;-73
2021/12/07 00:29:07;;;;;;;43.25;26.10;;;128.40;2252.80;;;;;;5057621;28;20029;-73
2021/12/07 00:31:41;;;;;;;43.33;26.40;;;128.40;2252.80;;;;;;5036394;28;20017;-73
2021/12/07 00:34:16;;;;;;;44.60;27.92;;;128.30;2252.80;;;;;;5053760;28;20029;-73
2021/12/07 00:36:46;;;;;;;48.38;29.80;;;128.30;2252.80;;;;;;5038352;28;20025;-73
2021/12/07 00:39:17;;;;;;;40.40;28.33;;;128.20;2252.80;;;;;;5040931;28;20029;-73
2021/12/07 00:41:44;;;;;;;41.33;27.30;;;128.30;2252.80;;;;;;5057527;28;20075;-73
2021/12/07 00:44:10;;;;;;;42.08;29.15;;;128.30;2252.80;;;;;;5039852;28;20029;-73
2021/12/07 00:46:37;;;;;;;45.47;27.95;;;128.30;2252.80;;;;;;5050725;28;20020;-74
2021/12/07 00:49:03;;;;;;;47.17;30.27;;;128.30;2252.80;;;;;;5050493;28;20052;-73
2021/12/07 00:51:29;;;;;;;48.85;29.33;;;128.30;2252.80;;;;;;5033778;28;20448;-73
2021/12/07 00:53:55;;;;;;;44.10;29.15;;;128.20;2252.80;;;;;;5028748;28;20053;-73
2021/12/07 00:56:22;;;;;;;39.85;27.83;;;128.20;2252.80;;;;;;5035650;28;20068;-75
2021/12/07 00:58:49;;;;;;;43.13;26.52;;;128.20;2252.80;;;;;;5053727;28;20021;-74
2021/12/07 01:01:16;;;;;;;43.15;26.63;;;128.20;2252.80;;;;;;5057794;28;20052;-74
2021/12/07 01:03:42;;;;;;;39.25;24.05;;;128.20;2252.80;;;;;;5057245;28;20045;-75
2021/12/07 01:06:23;;;;;;;42.63;27.80;;;128.20;2252.80;;;;;;5037127;28;20022;-75
2021/12/07 01:25:42;;;;;;;46.03;26.08;;;128.10;2252.80;;;;;;4990799;28;20106;-74
2021/12/07 01:31:14;;;;;;;42.67;26.73;;;128.10;2252.80;;;;;;4970214;28;20047;-74
2021/12/07 01:52:25;;;;;;;40.78;24.98;;;128.10;2252.80;;;;;;5001334;28;20036;-75
2021/12/07 02:00:28;;;;;;;41.05;26.48;;;128.00;2252.80;;;;;;4974056;28;20026;-75
2021/12/07 02:02:54;;;;;;;42.75;26.17;;;128.00;2252.80;;;;;;4986701;28;20050;-75
2021/12/07 02:05:21;;;;;;;39.63;26.23;;;128.00;2252.80;;;;;;5002618;28;20029;-75
2021/12/07 02:07:47;;;;;;;38.53;24.98;;;128.00;2252.80;;;;;;5026070;28;20033;-75
2021/12/07 02:10:20;;;;;;;39.28;28.05;;;128.00;2252.80;;;;;;5053366;28;20101;-75
2021/12/07 02:12:49;;;;;;;43.40;26.60;;;128.00;2252.80;;;;;;5046190;28;20060;-75
2021/12/07 02:15:22;;;;;;;38.58;26.08;;;128.00;2252.80;;;;;;5042671;28;20055;-74
2021/12/07 02:17:49;;;;;;;42.13;26.30;;;128.00;2252.80;;;;;;5053689;28;20044;-75
2021/12/07 02:20:16;;;;;;;43.08;27.25;;;128.00;2252.80;;;;;;5042402;28;20037;-75
2021/12/07 02:22:42;;;;;;;42.60;29.27;;;103.30;2227.20;;;;;;5067832;28;20033;-75
2021/12/07 02:25:10;;;;;;;40.08;28.13;;;103.30;2227.20;;;;;;5040354;28;20510;-75
2021/12/07 02:27:37;;;;;;;36.80;24.10;;;103.30;2227.20;;;;;;5058782;28;20028;-75
2021/12/07 02:30:15;;;;;;;39.30;24.70;;;103.30;2227.20;;;;;;5048161;28;20017;-75
2021/12/07 02:32:41;;;;;;;36.58;22.58;;;103.30;2227.20;;;;;;5058807;28;20471;-75
2021/12/07 02:35:09;;;;;;;42.13;27.17;;;103.30;2227.20;;;;;;5042797;28;20059;-75
2021/12/07 02:37:35;;;;;;;44.08;25.55;;;103.20;2227.20;;;;;;5062103;28;20017;-75
2021/12/07 02:40:03;;;;;;;36.92;24.67;;;103.30;2227.20;;;;;;5041781;28;20078;-75
2021/12/07 02:42:29;;;;;;;40.78;25.55;;;103.20;2227.20;;;;;;5063548;28;20127;-75
2021/12/07 02:44:55;;;;;;;38.33;25.20;;;103.30;2227.20;;;;;;5056902;28;20100;-75
2021/12/07 02:47:21;;;;;;;39.85;24.52;;;103.20;2227.20;;;;;;5045467;28;20483;-75
2021/12/07 02:49:47;;;;;;;43.42;28.40;;;103.30;2227.20;;;;;;5043000;28;20024;-75
2021/12/07 02:52:14;;;;;;;41.70;28.45;;;103.30;2227.20;;;;;;5062284;28;20020;-74
2021/12/07 02:54:44;;;;;;;43.80;25.92;;;103.20;2227.20;;;;;;5056549;28;20029;-74
2021/12/07 02:57:16;;;;;;;51.22;26.52;;;103.20;2227.20;;;;;;5045340;28;20115;-75
2021/12/07 02:59:46;;;;;;;42.10;25.58;;;103.20;2227.20;;;;;;5056133;28;20023;-74
2021/12/07 03:02:13;;;;;;;46.42;28.63;;;103.20;2227.20;;;;;;5049143;28;20049;-75
2021/12/07 03:04:49;;;;;;;46.30;27.83;;;103.20;2227.20;;;;;;5053651;28;20045;-74
2021/12/07 03:07:25;;;;;;;42.17;27.63;;;103.20;2227.20;;;;;;5054515;28;20356;-75
2021/12/07 03:26:20;;;;;;;51.45;30.13;;;103.10;2227.20;;;;;;5063253;28;20074;-75
2021/12/07 03:28:49;;;;;;;47.25;29.05;;;103.10;2227.20;;;;;;5062963;28;20056;-74
2021/12/07 03:31:18;;;;;;;44.22;29.05;;;103.10;2227.20;;;;;;5060208;28;20077;-75
2021/12/07 03:33:44;;;;;;;48.78;28.95;;;103.10;2227.20;;;;;;5031741;28;20037;-75
2021/12/07 03:36:11;;;;;;;45.15;27.60;;;103.10;2227.20;;;;;;5038136;28;20381;-76
2021/12/07 03:38:38;;;;;;;48.30;29.80;;;103.10;2227.20;;;;;;5042158;28;20120;-75
2021/12/07 03:41:04;;;;;;;46.28;29.27;;;103.10;2227.20;;;;;;5062549;28;20484;-77
2021/12/07 03:43:32;;;;;;;47.30;28.13;;;103.10;2227.20;;;;;;5051754;28;20036;-74
2021/12/07 03:45:58;;;;;;;42.78;28.35;;;103.00;2227.20;;;;;;5033801;28;20420;-75
2021/12/07 03:48:24;;;;;;;46.78;28.52;;;103.00;2227.20;;;;;;5034155;28;20025;-75
2021/12/07 03:50:50;;;;;;;48.35;29.25;;;103.00;2227.20;;;;;;5033956;28;20391;-75
2021/12/07 03:53:16;;;;;;;47.40;28.08;;;103.10;2227.20;;;;;;5051964;28;20108;-74
2021/12/07 03:55:42;;;;;;;46.72;30.48;;;102.90;2227.20;;;;;;5051334;28;20029;-74
2021/12/07 03:58:09;;;;;;;49.63;31.55;;;103.10;2227.20;;;;;;5034164;28;20514;-75
2021/12/07 04:00:39;;;;;;;48.55;30.02;;;103.00;2227.20;;;;;;5051564;28;20025;-75
2021/12/07 04:03:08;;;;;;;51.03;30.98;;;103.00;2227.20;;;;;;5033560;28;20592;-74
2021/12/07 04:05:44;;;;;;;51.35;29.60;;;102.90;2227.20;;;;;;5034027;28;20029;-74
2021/12/07 04:08:11;;;;;;;48.15;31.65;;;102.90;2227.20;;;;;;5033696;28;20029;-75
2021/12/07 04:10:37;;;;;;;50.25;30.35;;;102.90;2227.20;;;;;;5034032;28;20090;-75
2021/12/07 04:13:03;;;;;;;41.25;27.88;;;102.90;2227.20;;;;;;5051420;28;20472;-75
2021/12/07 04:15:29;;;;;;;46.30;29.13;;;102.90;2227.20;;;;;;5033473;28;20069;-74
2021/12/07 04:17:54;;;;;;;49.08;29.65;;;102.90;2227.20;;;;;;5033431;28;20029;-74
2021/12/07 04:20:21;;;;;;;47.22;31.55;;;102.90;2227.20;;;;;;5033975;28;20396;-74
2021/12/07 04:22:47;;;;;;;48.33;28.88;;;102.90;2227.20;;;;;;5033502;28;20033;-74
2021/12/07 04:25:16;;;;;;;50.42;29.92;;;102.90;2227.20;;;;;;5051049;28;20021;-74
2021/12/07 04:27:44;;;;;;;45.63;30.98;;;102.80;2227.20;;;;;;5033930;28;20049;-75
2021/12/07 04:30:16;;;;;;;44.25;29.38;;;102.90;2227.20;;;;;;5030410;28;20079;-75
2021/12/07 04:32:43;;;;;;;42.95;28.30;;;102.80;2227.20;;;;;;5033944;28;20086;-73
2021/12/07 04:35:10;;;;;;;49.85;29.92;;;102.70;2227.20;;;;;;5051427;28;20025;-75
2021/12/07 04:37:37;;;;;;;46.90;28.95;;;102.80;2227.20;;;;;;5051685;28;20021;-73
2021/12/07 04:40:05;;;;;;;52.95;30.48;;;102.80;2227.20;;;;;;5051331;28;20033;-75
2021/12/07 04:42:31;;;;;;;47.00;27.10;;;102.80;2227.20;;;;;;5050335;28;20079;-74
2021/12/07 04:45:01;;;;;;;42.97;27.08;;;102.80;2227.20;;;;;;5033864;28;20017;-75
2021/12/07 04:57:37;;;;;;;44.58;26.50;;;102.70;2227.20;;;;;;5051518;28;20029;-74
2021/12/07 04:58:15;;;;;;;42.90;27.63;;;102.70;2227.20;;;;;;5035186;28;20076;-71
2021/12/07 05:00:41;;;;;;;47.85;28.02;;;102.70;2227.20;;;;;;5034779;28;20045;-71
2021/12/07 05:03:11;;;;;;;44.78;27.58;;;102.70;2227.20;;;;;;5033415;28;20049;-74
2021/12/07 05:05:43;;;;;;;43.90;28.30;;;102.70;2227.20;;;;;;5033595;28;20041;-74
2021/12/07 05:08:12;;;;;;;50.15;29.20;;;102.60;2227.20;;;;;;5034871;28;20026;-73
2021/12/07 05:34:40;;;;;;;43.65;27.58;;;102.70;2227.20;;;;;;5075018;28;20090;-73
2021/12/07 05:39:51;;;;;;;48.58;28.25;;;102.70;2227.20;;;;;;5062494;28;20044;-73
2021/12/07 05:42:17;;;;;;;46.10;27.23;;;102.70;2227.20;;;;;;5036458;28;20025;-73
2021/12/07 05:44:43;;;;;;;44.40;26.13;;;102.70;2227.20;;;;;;5036188;28;20021;-73
2021/12/07 05:47:09;;;;;;;44.95;28.10;;;102.70;2227.20;;;;;;5053938;28;20029;-73
2021/12/07 05:49:35;;;;;;;40.08;24.60;;;102.70;2227.20;;;;;;5053602;28;20056;-75
2021/12/07 05:52:02;;;;;;;43.15;30.17;;;102.70;2227.20;;;;;;5035839;28;20025;-73
2021/12/07 05:54:28;;;;;;;44.28;28.73;;;102.60;2227.20;;;;;;5054078;28;20025;-73
2021/12/07 05:56:54;;;;;;;42.17;26.20;;;102.60;2227.20;;;;;;5035946;28;20468;-73
2021/12/07 05:59:20;;;;;;;38.42;23.55;;;102.90;2227.20;;;;;;5053833;28;20032;-73
2021/12/07 06:01:45;;;;;;;40.85;27.13;;;102.60;2227.20;;;;;;5034815;28;20057;-74
2021/12/07 06:04:11;;;;;;;48.92;26.58;;;102.60;2227.20;;;;;;5034640;28;20087;-74
2021/12/07 06:06:38;;;;;;;46.80;25.33;;;102.60;2227.20;;;;;;5052556;28;20036;-74
2021/12/07 06:09:04;;;;;;;41.05;24.98;;;102.60;2227.20;;;;;;5034197;28;20029;-73
2021/12/07 06:11:30;;;;;;;46.88;27.55;;;102.60;2227.20;;;;;;5052619;28;20025;-73
2021/12/07 06:13:56;;;;;;;42.03;26.58;;;102.60;2227.20;;;;;;5034747;28;20024;-74
2021/12/07 06:16:23;;;;;;;40.83;26.35;;;102.60;2227.20;;;;;;5053015;28;20033;-74
2021/12/07 06:18:49;;;;;;;40.55;26.00;;;102.60;2227.20;;;;;;5052158;28;20025;-74
2021/12/07 06:21:16;;;;;;;43.25;27.30;;;102.60;2227.20;;;;;;5034898;28;20036;-73
2021/12/07 06:23:42;;;;;;;44.20;27.40;;;102.60;2227.20;;;;;;5034420;28;20029;-74
2021/12/07 06:26:08;;;;;;;52.58;28.63;;;102.60;2227.20;;;;;;5052606;28;20538;-73
2021/12/07 06:28:34;;;;;;;50.33;29.33;;;102.60;2227.20;;;;;;5051665;28;20025;-73
2021/12/07 06:31:00;;;;;;;57.35;30.80;;;102.60;2227.20;;;;;;5053206;28;20382;-73
2021/12/07 06:33:27;;;;;;;52.78;31.55;;;102.60;2227.20;;;;;;5034121;28;20120;-73
2021/12/07 06:35:58;;;;;;;45.90;30.05;;;102.60;2227.20;;;;;;5052186;28;20099;-74
2021/12/07 06:38:26;;;;;;;44.22;27.02;;;102.60;2227.20;;;;;;5034811;28;20025;-74
2021/12/07 06:40:52;;;;;;;45.15;27.58;;;102.60;2227.20;;;;;;5052442;28;20024;-74
2021/12/07 06:43:18;;;;;;;49.58;29.02;;;102.60;2227.20;;;;;;5034629;28;20025;-74
2021/12/07 06:45:44;;;;;;;44.88;27.88;;;102.60;2227.20;;;;;;5033953;28;20027;-74
2021/12/07 06:48:09;;;;;;;43.92;26.33;;;102.50;2227.20;;;;;;5052216;28;20104;-73
2021/12/07 06:50:37;;;;;;;43.55;27.23;;;102.50;2227.20;;;;;;5033762;28;20534;-73
2021/12/07 06:53:03;;;;;;;45.30;28.10;;;102.40;2227.20;;;;;;5052256;28;20487;-73
2021/12/07 06:55:29;;;;;;;47.20;27.83;;;102.50;2227.20;;;;;;5037362;28;20035;-73
2021/12/07 06:57:55;;;;;;;41.67;27.52;;;102.50;2227.20;;;;;;5035574;28;20029;-74
2021/12/07 07:00:21;;;;;;;46.40;29.00;;;102.50;2227.20;;;;;;5033887;28;20032;-73
2021/12/07 07:02:47;;;;;;;48.65;29.35;;;102.50;2227.20;;;;;;5033424;28;20056;-74
2021/12/07 07:05:14;;;;;;;45.17;28.67;;;102.50;2227.20;;;;;;5051975;28;20187;-73
2021/12/07 07:07:41;;;;;;;51.13;28.85;;;102.60;2227.20;;;;;;5036505;28;20029;-73
2021/12/07 07:10:10;;;;;;;48.45;30.23;;;102.60;2227.20;;;;;;5041180;28;20075;-74
2021/12/07 07:12:35;;;;;;;51.33;30.88;;;102.60;2227.20;;;;;;5051799;28;20028;-73
2021/12/07 07:15:02;;;;;;;48.22;28.77;;;102.50;2227.20;;;;;;5033873;28;20044;-73
2021/12/07 07:17:27;;;;;;;49.40;28.15;;;102.50;2227.20;;;;;;5050505;28;20033;-73
2021/12/07 07:19:53;;;;;;;52.83;30.50;;;102.50;2227.20;;;;;;5060736;28;20025;-74
2021/12/07 07:22:19;;;;;;;47.17;27.13;;;102.60;2227.20;;;;;;5060295;28;20056;-73
2021/12/07 07:24:45;;;;;;;57.22;31.42;;;102.60;2227.20;;;;;;5055885;28;20087;-73
2021/12/07 07:27:11;;;;;;;51.25;29.15;;;102.60;2227.20;;;;;;5055076;28;20017;-73
2021/12/07 07:29:36;;;;;;;53.67;29.83;;;102.60;2227.20;;;;;;5056827;28;20032;-73
2021/12/07 07:32:03;;;;;;;46.72;29.48;;;102.60;2227.20;;;;;;5054765;28;20025;-72
2021/12/07 07:34:29;;;;;;;51.22;27.80;;;102.60;2227.20;;;;;;5056724;28;20029;-73
2021/12/07 07:36:55;;;;;;;47.13;29.05;;;102.70;2227.20;;;;;;5037685;28;20087;-72
2021/12/07 07:39:21;;;;;;;51.47;27.85;;;102.60;2227.20;;;;;;5055267;28;20032;-73
2021/12/07 07:41:47;;;;;;;49.00;28.25;;;102.60;2227.20;;;;;;5039066;28;20028;-73
2021/12/07 07:44:13;;;;;;;47.17;29.33;;;102.60;2227.20;;;;;;5040774;28;20082;-73
2021/12/07 07:46:38;;;;;;;54.35;30.33;;;102.70;2227.20;;;;;;5054470;28;20027;-73
2021/12/07 07:49:04;;;;;;;44.00;28.42;;;102.70;2227.20;;;;;;5058768;28;20496;-72
2021/12/07 07:51:35;;;;;;;47.38;31.20;;;102.80;2227.20;;;;;;5042474;28;20051;-73
2021/12/07 07:54:01;;;;;;;45.55;27.52;;;102.80;2227.20;;;;;;5059972;28;20495;-73
2021/12/07 07:56:28;;;;;;;49.67;26.50;;;102.70;2227.20;;;;;;5057092;28;20036;-72
2021/12/07 07:58:54;;;;;;;45.00;26.83;;;102.80;2227.20;;;;;;5042656;28;20029;-72
2021/12/07 08:01:23;;;;;;;43.08;25.92;;;102.80;2227.20;;;;;;5041319;28;20043;-73
2021/12/07 08:03:52;;;;;;;43.22;26.58;;;102.80;2227.20;;;;;;5055516;28;20047;-71
2021/12/07 08:06:18;;;;;;;45.35;26.63;;;102.80;2227.20;;;;;;5040583;28;20036;-72
2021/12/07 08:08:44;;;;;;;43.70;24.60;;;102.80;2227.20;;;;;;5060960;28;20016;-71
2021/12/07 08:11:10;;;;;;;41.28;24.45;;;102.90;2227.20;;;;;;5041357;28;20028;-71
2021/12/07 08:13:36;;;;;;;40.15;24.67;;;102.90;2227.20;;;;;;5037833;28;20031;-71
2021/12/07 08:16:04;;;;;;;47.45;25.70;;;102.90;2227.20;;;;;;5055600;28;20044;-71
2021/12/07 08:18:52;;;;;;;42.80;28.05;;;103.00;2227.20;;;;;;5031892;28;20048;-71
2021/12/07 08:21:19;;;;;;;39.53;24.85;;;103.10;2227.20;;;;;;5027991;28;20034;-71
2021/12/07 08:23:46;;;;;;;38.40;24.38;;;103.10;2227.20;;;;;;5037414;28;20082;-71
2021/12/07 08:26:15;;;;;;;39.40;24.02;;;103.00;2227.20;;;;;;5030928;28;20026;-72
2021/12/07 08:28:41;;;;;;;44.17;29.40;;;103.00;2227.20;;;;;;5037134;28;20021;-72
2021/12/07 08:31:07;;;;;;;44.00;26.85;;;103.00;2227.20;;;;;;5025686;28;20430;-72
2021/12/07 08:33:34;;;;;;;41.70;26.75;;;103.10;2227.20;;;;;;5041226;28;20053;-72
2021/12/07 08:36:01;;;;;;;34.55;23.65;;;103.10;2227.20;;;;;;5038571;28;20573;-72
2021/12/07 08:38:27;;;;;;;43.65;25.67;;;103.00;2227.20;;;;;;5017362;28;20570;-72
2021/12/07 08:40:54;;;;;;;45.38;27.60;;;103.00;2227.20;;;;;;5033955;28;20036;-72
2021/12/07 08:43:27;;;;;;;45.90;27.83;;;103.10;2227.20;;;;;;5034256;28;20026;-72
2021/12/07 08:45:55;;;;;;;50.75;27.50;;;103.10;2227.20;;;;;;5043430;28;20036;-72
2021/12/07 08:48:22;;;;;;;49.25;29.52;;;103.10;2227.20;;;;;;5016873;28;20444;-72
2021/12/07 08:50:48;;;;;;;50.10;32.00;;;103.20;2227.20;;;;;;5040182;28;20025;-72
2021/12/07 08:53:16;;;;;;;58.70;31.52;;;103.10;2227.20;;;;;;5029166;28;20026;-72
2021/12/07 09:01:17;;;;;;;46.25;29.35;;;103.20;2227.20;;;;;;5041865;28;20117;-72
2021/12/07 09:03:44;;;;;;;49.15;29.23;;;103.20;2227.20;;;;;;5023332;28;20060;-71
2021/12/07 09:06:10;;;;;;;44.67;26.75;;;103.20;2227.20;;;;;;5043728;28;20287;-71
2021/12/07 09:08:36;;;;;;;43.63;26.90;;;103.20;2227.20;;;;;;5033749;28;20380;-71
2021/12/07 09:11:03;;;;;;;49.72;29.42;;;103.30;2227.20;;;;;;5043844;28;20025;-71
2021/12/07 09:13:29;;;;;;;43.40;26.23;;;103.20;2227.20;;;;;;5022047;28;20025;-71
2021/12/07 09:15:56;;;;;;;42.53;25.27;;;103.30;2227.20;;;;;;5041852;28;20040;-70
2021/12/07 09:18:23;;;;;;;40.78;27.92;;;103.30;2227.20;;;;;;5012603;28;20221;-70
2021/12/07 09:20:49;;;;;;;42.20;27.50;;;128.00;2252.80;;;;;;5008971;28;20658;-70
2021/12/07 09:23:15;;;;;;;45.60;28.25;;;128.10;2252.80;;;;;;5031295;28;20470;-71
2021/12/07 09:25:41;;;;;;;43.47;23.67;;;128.10;2252.80;;;;;;5037278;28;20372;-70
2021/12/07 09:28:08;;;;;;;45.63;26.63;;;128.20;2252.80;;;;;;5032799;28;20036;-70
2021/12/07 09:30:34;;;;;;;40.15;24.92;;;128.40;2252.80;;;;;;5033479;28;20431;-71
2021/12/07 09:33:00;;;;;;;42.22;22.52;;;128.50;2252.80;;;;;;5034860;28;20081;-70
2021/12/07 09:35:25;;;;;;;44.35;26.10;;;128.40;2252.80;;;;;;5039786;28;20036;-70
2021/12/07 09:37:53;;;;;;;37.55;24.63;;;128.50;2252.80;;;;;;5044040;28;20082;-70
2021/12/07 09:40:20;;;;;;;37.40;22.75;;;128.70;2252.80;;;;;;5025927;28;20492;-71
2021/12/07 09:42:47;;;;;;;48.22;26.50;;;128.60;2252.80;;;;;;5035376;28;20037;-70
2021/12/07 09:48:43;;;;;;;44.45;25.63;;;128.90;2252.80;;;;;;5033216;28;20028;-70
2021/12/07 09:51:11;;;;;;;37.53;23.13;;;153.70;2252.80;;;;;;5036825;28;20488;-70
2021/12/07 09:53:37;;;;;;;41.60;25.02;;;153.70;2252.80;;;;;;5037565;28;20057;-70
2021/12/07 09:56:05;;;;;;;45.30;25.48;;;153.70;2252.80;;;;;;5038390;28;20112;-71
2021/12/07 09:58:32;;;;;;;40.38;24.35;;;153.70;2252.80;;;;;;5027170;28;20392;-71
2021/12/07 10:00:58;;;;;;;44.72;26.00;;;153.70;2252.80;;;;;;5044855;28;20057;-70
2021/12/07 10:03:25;;;;;;;43.03;27.75;;;153.70;2252.80;;;;;;5036493;28;20052;-71
2021/12/07 10:05:51;;;;;;;43.20;25.77;;;153.70;2252.80;;;;;;5031605;28;20029;-70
2021/12/07 10:08:18;;;;;;;36.83;22.58;;;153.60;2252.80;;;;;;5036859;28;20025;-69
2021/12/07 10:10:55;;;;;;;43.97;25.13;;;153.60;2252.80;;;;;;5030523;28;20377;-70
2021/12/07 10:13:21;;;;;;;;;;;153.60;2252.80;;;;;;5008404;28;20033;-70
2021/12/07 10:15:48;;;;;;;35.72;19.83;;;153.60;2252.80;;;;;;5025153;28;19916;-70
2021/12/07 10:18:18;;;;;;;40.78;24.60;;;153.70;2252.80;;;;;;5016448;28;20033;-70
2021/12/07 10:20:47;;;;;;;45.60;27.65;;;153.60;2252.80;;;;;;5010969;28;20461;-70
2021/12/07 10:23:16;;;;;;;38.65;25.65;;;153.60;2252.80;;;;;;5030382;28;20060;-70
2021/12/07 10:25:46;;;;;;;45.35;27.75;;;128.90;2252.80;;;;;;5029428;28;20025;-70
2021/12/07 10:28:36;;;;;;;47.58;27.35;;;128.80;2252.80;;;;;;5044506;28;20029;-70
2021/12/07 10:31:15;;;;;;;45.67;29.70;;;128.80;2252.80;;;;;;5034280;28;20021;-70
2021/12/07 10:34:11;;;;;;;41.13;25.60;;;128.80;2252.80;;;;;;5038263;28;20029;-70
2021/12/07 10:36:41;;;;;;;41.83;27.13;;;128.80;2252.80;;;;;;5015176;28;20793;-70
2021/12/07 10:39:15;;;;;;;49.75;28.75;;;128.70;2252.80;;;;;;5038536;28;20044;-70
2021/12/07 10:41:44;;;;;;;48.53;29.13;;;128.90;2252.80;;;;;;5035582;28;20029;-70
2021/12/07 10:44:11;;;;;;;42.33;25.80;;;128.90;2252.80;;;;;;5037895;28;20032;-70
2021/12/07 10:46:59;;;;;;;42.40;26.98;;;128.90;2252.80;;;;;;5035664;28;20028;-71
2021/12/07 10:49:37;;;;;;;44.53;27.15;;;153.60;2252.80;;;;;;5035219;28;20028;-70
2021/12/07 10:52:07;;;;;;;47.78;26.42;;;153.60;2252.80;;;;;;5037365;28;20033;-70
2021/12/07 10:54:44;;;;;;;52.30;30.88;;;153.60;2252.80;;;;;;5013176;28;20077;-70
2021/12/07 10:57:14;;;;;;;43.00;28.20;;;153.70;2252.80;;;;;;5033284;28;20045;-70
2021/12/07 10:59:53;;;;;;;43.05;29.25;;;153.70;2252.80;;;;;;5038196;28;20035;-69
2021/12/07 11:02:19;;;;;;;42.78;28.17;;;153.70;2252.80;;;;;;5029077;28;20050;-70
2021/12/07 11:04:47;;;;;;;42.67;25.42;;;153.70;2252.80;;;;;;5039859;28;20027;-70
2021/12/07 11:07:29;;;;;;;48.30;32.40;;;153.60;2252.80;;;;;;5038352;28;20022;-70
2021/12/07 11:10:11;;;;;;;50.25;28.20;;;153.70;2252.80;;;;;;5039847;28;20017;-70
2021/12/07 11:12:47;;;;;;;47.70;27.00;;;153.60;2252.80;;;;;;5038679;28;20021;-70
2021/12/07 11:15:19;;;;;;;50.00;27.58;;;153.60;2252.80;;;;;;5040830;28;20116;-69
2021/12/07 11:17:45;;;;;;;41.65;26.67;;;128.90;2252.80;;;;;;5038105;28;20535;-70
2021/12/07 11:20:13;;;;;;;46.15;27.42;;;128.80;2252.80;;;;;;5014551;28;20087;-69
2021/12/07 11:22:44;;;;;;;44.30;26.33;;;128.90;2252.80;;;;;;5038129;28;20020;-70
2021/12/07 11:25:21;;;;;;;41.00;27.27;;;128.80;2252.80;;;;;;5026063;28;20099;-70
2021/12/07 11:30:32;;;;;;;46.80;30.17;;;128.80;2252.80;;;;;;5035308;28;20052;-70
2021/12/07 11:32:59;;;;;;;47.95;30.73;;;128.80;2252.80;;;;;;5042389;28;20025;-70
2021/12/07 11:35:33;;;;;;;41.85;26.77;;;128.80;2252.80;;;;;;5033898;28;20034;-70
2021/12/07 11:38:05;;;;;;;46.40;27.40;;;128.90;2252.80;;;;;;5042465;28;20024;-71
2021/12/07 11:40:36;;;;;;;49.92;27.38;;;128.80;2252.80;;;;;;5039629;28;20036;-70
2021/12/07 11:43:02;;;;;;;46.60;25.58;;;128.80;2252.80;;;;;;5036191;28;20026;-70
2021/12/07 11:45:30;;;;;;;42.85;26.50;;;128.90;2252.80;;;;;;5038230;28;20095;-70
2021/12/07 11:48:05;;;;;;;42.13;25.52;;;128.90;2252.80;;;;;;5037783;28;20045;-70
2021/12/07 11:50:39;;;;;;;48.33;28.70;;;153.60;2252.80;;;;;;5036646;28;20057;-70
2021/12/07 11:53:09;;;;;;;45.92;27.45;;;153.70;2252.80;;;;;;5041865;28;20123;-70
2021/12/07 11:55:36;;;;;;;47.45;27.50;;;153.60;2252.80;;;;;;5034576;28;20039;-70
2021/12/07 11:58:05;;;;;;;45.95;27.45;;;153.60;2252.80;;;;;;5016400;28;20515;-70
2021/12/07 12:00:35;;;;;;;49.50;29.55;;;153.60;2252.80;;;;;;5036840;28;20033;-70
2021/12/07 12:03:12;;;;;;;46.65;29.27;;;128.90;2252.80;;;;;;5033124;28;20053;-70
2021/12/07 12:05:41;;;;;;;52.05;29.35;;;128.90;2252.80;;;;;;5030744;28;20396;-71
2021/12/07 12:08:09;;;;;;;45.05;26.27;;;128.80;2252.80;;;;;;5030262;28;20036;-70
2021/12/07 12:10:40;;;;;;;45.55;26.77;;;128.80;2252.80;;;;;;5032823;28;20480;-70
2021/12/07 12:13:28;;;;;;;44.85;28.17;;;128.70;2252.80;;;;;;5031081;28;20037;-70
2021/12/07 12:16:12;;;;;;;44.88;28.70;;;128.70;2252.80;;;;;;5017406;28;20033;-70
2021/12/07 12:18:47;;;;;;;59.40;36.25;;;128.70;2252.80;;;;;;5029826;28;20022;-72
2021/12/07 12:21:44;;;;;;;45.53;25.70;;;128.70;2252.80;;;;;;5030221;28;20063;-70
2021/12/07 12:24:10;;;;;;;;;;;128.70;2252.80;;;;;;5018520;28;20121;-70
2021/12/07 12:26:36;;;;;;;44.80;26.03;;;128.70;2252.80;;;;;;5031107;28;19988;-70
2021/12/07 12:29:16;;;;;;;45.47;28.33;;;128.60;2252.80;;;;;;5032878;28;20049;-71
2021/12/07 12:32:00;;;;;;;42.15;27.17;;;128.60;2252.80;;;;;;5013204;28;20117;-70
2021/12/07 12:34:32;;;;;;;49.80;29.77;;;128.70;2252.80;;;;;;5022234;28;20065;-72
2021/12/07 12:37:15;;;;;;;51.58;28.58;;;128.60;2252.80;;;;;;5040727;28;20091;-70
2021/12/07 12:39:54;;;;;;;44.78;27.73;;;128.50;2252.80;;;;;;5030533;28;20477;-69
2021/12/07 12:42:43;;;;;;;46.35;28.25;;;128.60;2252.80;;;;;;5026879;28;20104;-70
2021/12/07 12:45:29;;;;;;;42.63;27.10;;;128.50;2252.80;;;;;;5043190;28;20098;-69
2021/12/07 12:48:27;;;;;;;45.72;27.98;;;128.50;2252.80;;;;;;5033784;28;20488;-70
2021/12/07 12:50:54;;;;;;;;;;;128.60;2252.80;;;;;;5023538;28;20034;-70
2021/12/07 12:53:19;;;;;;;;;;;128.50;2252.80;;;;;;5021824;28;19909;-70
2021/12/07 12:55:50;;;;;;;40.27;26.10;;;128.50;2252.80;;;;;;5023143;28;19992;-69
2021/12/07 12:58:38;;;;;;;47.45;29.27;;;128.50;2252.80;;;;;;5033488;28;20026;-69
2021/12/07 13:01:28;;;;;;;49.88;29.95;;;128.40;2252.80;;;;;;5005920;28;20030;-69
2021/12/07 13:04:12;;;;;;;55.00;30.75;;;128.30;2252.80;;;;;;5042258;28;20604;-70
2021/12/07 13:06:44;;;;;;;56.22;30.30;;;128.30;2252.80;;;;;;5045101;28;20135;-69
2021/12/07 13:09:20;;;;;;;51.42;31.42;;;128.30;2252.80;;;;;;5014788;28;20030;-69
2021/12/07 13:11:46;;;;;;;50.80;29.63;;;128.20;2252.80;;;;;;5046339;28;20041;-70
2021/12/07 13:14:28;;;;;;;52.50;30.38;;;128.30;2252.80;;;;;;5045611;28;20052;-69
2021/12/07 13:17:13;;;;;;;55.20;32.00;;;128.30;2252.80;;;;;;5021530;28;20048;-70
2021/12/07 13:20:03;;;;;;;55.30;30.33;;;128.20;2252.80;;;;;;5047951;28;20020;-70
2021/12/07 13:22:37;;;;;;;55.22;29.83;;;128.20;2252.80;;;;;;5045470;28;20033;-70
2021/12/07 13:25:15;;;;;;;57.05;29.30;;;128.20;2252.80;;;;;;5046140;28;20020;-70
2021/12/07 13:28:15;;;;;;;46.97;28.58;;;128.20;2252.80;;;;;;5043472;28;20024;-70
2021/12/07 13:33:57;;;;;;;60.50;32.88;;;128.20;2252.80;;;;;;5049659;28;20035;-72
2021/12/07 13:36:37;;;;;;;51.35;31.00;;;128.20;2252.80;;;;;;5045325;28;20479;-72
2021/12/07 13:39:26;;;;;;;51.35;31.15;;;128.10;2252.80;;;;;;5043441;28;20060;-72
2021/12/07 13:41:59;;;;;;;66.53;36.85;;;128.30;2252.80;;;;;;4987066;28;20521;-71
2021/12/07 13:44:27;;;;;;;67.13;38.47;;;128.30;2252.80;;;;;;4985448;28;20030;-71
2021/12/07 13:47:03;;;;;;;66.03;37.97;;;128.30;2252.80;;;;;;4983309;28;20125;-72
2021/12/07 13:49:31;;;;;;;68.10;38.85;;;128.20;2252.80;;;;;;4989024;28;20025;-71
2021/12/07 13:51:57;;;;;;;69.75;40.38;;;128.20;2252.80;;;;;;4988878;28;20050;-71
2021/12/07 13:58:14;;;;;;;53.38;32.08;;;128.20;2252.80;;;;;;4982319;28;20078;-71
2021/12/07 14:01:26;;;;;;;55.10;33.10;;;128.10;2252.80;;;;;;4951466;28;20794;-73
2021/12/07 14:03:56;;;;;;;54.40;33.30;;;128.10;2252.80;;;;;;4973932;28;20038;-71
2021/12/07 14:06:23;;;;;;;68.60;37.20;;;128.20;2252.80;;;;;;4940716;28;20031;-71
2021/12/07 14:08:49;;;;;;;71.13;40.80;;;128.10;2252.80;;;;;;4954610;28;20057;-72